sensor_id;sensor_type;location;lat;lon;timestamp;pressure;altitude;pressure_sealevel;temperature;humidity
40490;BME280;26196;52.302;10.572;2023-03-15T00:02:11;99917.22;;;10.50;49.85
40490;BME280;26196;52.302;10.572;2023-03-15T00:06:12;99922.44;;;10.50;49.95
40490;BME280;26196;52.302;10.572;2023-03-15T00:10:12;99931.22;;;10.49;49.56
40490;BME280;26196;52.302;10.572;2023-03-15T00:14:47;99933.16;;;10.44;50.37
40490;BME280;26196;52.302;10.572;2023-03-15T00:18:47;99938.44;;;10.43;50.28
40490;BME280;26196;52.302;10.572;2023-03-15T00:22:47;99940.25;;;10.41;50.20
40490;BME280;26196;52.302;10.572;2023-03-15T00:26:48;99943.72;;;10.41;49.55
40490;BME280;26196;52.302;10.572;2023-03-15T00:31:25;99953.22;;;10.44;50.00
40490;BME280;26196;52.302;10.572;2023-03-15T00:35:26;99962.84;;;10.43;49.09
40490;BME280;26196;52.302;10.572;2023-03-15T00:39:27;99965.66;;;10.37;49.90
40490;BME280;26196;52.302;10.572;2023-03-15T00:44:02;99968.34;;;10.36;49.57
40490;BME280;26196;52.302;10.572;2023-03-15T00:48:03;99975.28;;;10.37;49.94
40490;BME280;26196;52.302;10.572;2023-03-15T00:52:04;99977.03;;;10.36;49.09
40490;BME280;26196;52.302;10.572;2023-03-15T00:56:39;99985.03;;;10.32;49.51
40490;BME280;26196;52.302;10.572;2023-03-15T01:00:40;99978.13;;;10.31;48.83
40490;BME280;26196;52.302;10.572;2023-03-15T01:04:40;99992.97;;;10.30;49.64
40490;BME280;26196;52.302;10.572;2023-03-15T01:09:17;99996.47;;;10.29;49.48
40490;BME280;26196;52.302;10.572;2023-03-15T01:13:18;99989.41;;;10.31;48.96
40490;BME280;26196;52.302;10.572;2023-03-15T01:17:55;99997.38;;;10.26;49.37
40490;BME280;26196;52.302;10.572;2023-03-15T01:21:56;99997.50;;;10.23;49.51
40490;BME280;26196;52.302;10.572;2023-03-15T01:26:33;100000.84;;;10.27;49.66
40490;BME280;26196;52.302;10.572;2023-03-15T01:30:33;100006.19;;;10.24;49.27
40490;BME280;26196;52.302;10.572;2023-03-15T01:34:34;100003.78;;;10.18;49.15
40490;BME280;26196;52.302;10.572;2023-03-15T01:39:09;100004.75;;;10.15;49.11
40490;BME280;26196;52.302;10.572;2023-03-15T01:43:19;100009.06;;;10.16;49.23
40490;BME280;26196;52.302;10.572;2023-03-15T01:47:20;100007.31;;;10.17;49.54
40490;BME280;26196;52.302;10.572;2023-03-15T01:55:30;100008.09;;;10.19;48.87
40490;BME280;26196;52.302;10.572;2023-03-15T01:59:38;100008.09;;;10.19;49.55
40490;BME280;26196;52.302;10.572;2023-03-15T02:03:42;100014.38;;;10.15;49.77
40490;BME280;26196;52.302;10.572;2023-03-15T02:08:14;100015.31;;;10.12;49.34
40490;BME280;26196;52.302;10.572;2023-03-15T02:12:17;100021.41;;;10.13;49.22
40490;BME280;26196;52.302;10.572;2023-03-15T02:16:17;100008.31;;;10.13;49.61
40490;BME280;26196;52.302;10.572;2023-03-15T02:29:18;100013.66;;;10.10;49.87
40490;BME280;26196;52.302;10.572;2023-03-15T02:33:52;100018.09;;;10.07;50.00
40490;BME280;26196;52.302;10.572;2023-03-15T02:37:57;100029.38;;;10.08;49.32
40490;BME280;26196;52.302;10.572;2023-03-15T02:41:57;100023.41;;;10.04;49.37
40490;BME280;26196;52.302;10.572;2023-03-15T02:46:32;100032.06;;;10.06;49.35
40490;BME280;26196;52.302;10.572;2023-03-15T02:50:32;100042.53;;;10.06;49.32
40490;BME280;26196;52.302;10.572;2023-03-15T02:54:33;100037.38;;;10.03;49.51
40490;BME280;26196;52.302;10.572;2023-03-15T02:58:33;100040.75;;;10.07;49.44
40490;BME280;26196;52.302;10.572;2023-03-15T03:02:33;100060.03;;;10.04;49.83
40490;BME280;26196;52.302;10.572;2023-03-15T03:06:34;100061.81;;;10.02;49.28
40490;BME280;26196;52.302;10.572;2023-03-15T03:10:34;100067.19;;;9.98;49.58
40490;BME280;26196;52.302;10.572;2023-03-15T03:19:10;100070.59;;;10.01;49.81
40490;BME280;26196;52.302;10.572;2023-03-15T03:23:13;100080.25;;;9.98;49.40
40490;BME280;26196;52.302;10.572;2023-03-15T03:27:15;100088.22;;;9.95;49.60
40490;BME280;26196;52.302;10.572;2023-03-15T03:31:20;100089.78;;;10.00;49.36
40490;BME280;26196;52.302;10.572;2023-03-15T03:35:21;100095.19;;;9.94;49.71
40490;BME280;26196;52.302;10.572;2023-03-15T03:39:22;100095.19;;;9.94;49.65
40490;BME280;26196;52.302;10.572;2023-03-15T03:43:22;100102.94;;;9.97;49.88
40490;BME280;26196;52.302;10.572;2023-03-15T03:47:23;100105.56;;;9.97;49.39
40490;BME280;26196;52.302;10.572;2023-03-15T03:51:32;100110.81;;;9.96;50.02
40490;BME280;26196;52.302;10.572;2023-03-15T04:00:10;100122.94;;;9.98;49.44
40490;BME280;26196;52.302;10.572;2023-03-15T04:08:44;100130.88;;;9.95;49.91
40490;BME280;26196;52.302;10.572;2023-03-15T04:12:44;100141.41;;;9.94;49.80
40490;BME280;26196;52.302;10.572;2023-03-15T04:16:44;100139.56;;;9.97;50.25
40490;BME280;26196;52.302;10.572;2023-03-15T04:20:46;100146.44;;;10.00;50.03
40490;BME280;26196;52.302;10.572;2023-03-15T04:24:46;100163.19;;;9.94;49.31
40490;BME280;26196;52.302;10.572;2023-03-15T04:28:49;100158.94;;;9.90;49.82
40490;BME280;26196;52.302;10.572;2023-03-15T04:33:27;100167.59;;;9.92;49.33
40490;BME280;26196;52.302;10.572;2023-03-15T04:37:27;100162.50;;;9.88;49.48
40490;BME280;26196;52.302;10.572;2023-03-15T04:42:02;100187.69;;;9.90;49.68
40490;BME280;26196;52.302;10.572;2023-03-15T04:46:37;100188.69;;;9.86;48.82
40490;BME280;26196;52.302;10.572;2023-03-15T04:51:14;100183.56;;;9.83;49.11
40490;BME280;26196;52.302;10.572;2023-03-15T04:55:51;100193.97;;;9.84;49.13
40490;BME280;26196;52.302;10.572;2023-03-15T04:59:52;100208.88;;;9.81;48.40
40490;BME280;26196;52.302;10.572;2023-03-15T05:03:52;100203.81;;;9.75;48.47
40490;BME280;26196;52.302;10.572;2023-03-15T05:08:29;100205.63;;;9.73;48.92
40490;BME280;26196;52.302;10.572;2023-03-15T05:12:30;100210.94;;;9.70;48.51
40490;BME280;26196;52.302;10.572;2023-03-15T05:17:04;100219.69;;;9.69;49.03
40490;BME280;26196;52.302;10.572;2023-03-15T05:21:05;100223.84;;;9.76;48.14
40490;BME280;26196;52.302;10.572;2023-03-15T05:25:39;100233.81;;;9.61;48.22
40490;BME280;26196;52.302;10.572;2023-03-15T05:30:14;100238.09;;;9.64;48.64
40490;BME280;26196;52.302;10.572;2023-03-15T05:34:15;100246.13;;;9.56;48.53
40490;BME280;26196;52.302;10.572;2023-03-15T05:38:53;100253.22;;;9.53;48.31
40490;BME280;26196;52.302;10.572;2023-03-15T05:42:53;100262.00;;;9.50;48.41
40490;BME280;26196;52.302;10.572;2023-03-15T05:46:53;100270.66;;;9.52;48.30
40490;BME280;26196;52.302;10.572;2023-03-15T05:50:54;100281.88;;;9.56;48.63
40490;BME280;26196;52.302;10.572;2023-03-15T05:54:54;100289.69;;;9.57;48.89
40490;BME280;26196;52.302;10.572;2023-03-15T05:58:54;100292.44;;;9.51;49.55
40490;BME280;26196;52.302;10.572;2023-03-15T06:03:30;100310.69;;;9.54;48.53
40490;BME280;26196;52.302;10.572;2023-03-15T06:07:30;100308.09;;;9.53;49.18
40490;BME280;26196;52.302;10.572;2023-03-15T06:11:31;100310.00;;;9.46;49.16
40490;BME280;26196;52.302;10.572;2023-03-15T06:15:31;100337.66;;;9.55;49.06
40490;BME280;26196;52.302;10.572;2023-03-15T06:19:31;100342.91;;;9.53;48.68
40490;BME280;26196;52.302;10.572;2023-03-15T06:23:32;100349.81;;;9.56;48.63
40490;BME280;26196;52.302;10.572;2023-03-15T06:27:32;100359.59;;;9.48;48.77
40490;BME280;26196;52.302;10.572;2023-03-15T06:36:10;100368.19;;;9.53;48.94
40490;BME280;26196;52.302;10.572;2023-03-15T06:40:11;100371.66;;;9.53;49.32
40490;BME280;26196;52.302;10.572;2023-03-15T06:44:11;100385.47;;;9.58;49.24
40490;BME280;26196;52.302;10.572;2023-03-15T06:48:12;100386.38;;;9.57;49.43
40490;BME280;26196;52.302;10.572;2023-03-15T06:52:13;100390.84;;;9.52;49.53
40490;BME280;26196;52.302;10.572;2023-03-15T06:56:13;100391.41;;;9.65;49.48
40490;BME280;26196;52.302;10.572;2023-03-15T07:00:50;100398.66;;;9.88;49.82
40490;BME280;26196;52.302;10.572;2023-03-15T07:04:51;100399.59;;;9.85;50.10
40490;BME280;26196;52.302;10.572;2023-03-15T07:09:29;100402.97;;;9.89;49.65
40490;BME280;26196;52.302;10.572;2023-03-15T07:13:30;100401.97;;;9.93;49.89
40490;BME280;26196;52.302;10.572;2023-03-15T07:17:30;100415.97;;;9.92;49.30
40490;BME280;26196;52.302;10.572;2023-03-15T07:26:08;100433.44;;;9.90;48.89
40490;BME280;26196;52.302;10.572;2023-03-15T07:30:50;100441.16;;;9.96;49.48
40490;BME280;26196;52.302;10.572;2023-03-15T07:34:50;100440.97;;;10.02;49.29
40490;BME280;26196;52.302;10.572;2023-03-15T07:43:25;100462.19;;;9.90;49.30
40490;BME280;26196;52.302;10.572;2023-03-15T07:47:26;100464.13;;;9.83;49.78
40490;BME280;26196;52.302;10.572;2023-03-15T07:51:32;100475.59;;;9.78;48.97
40490;BME280;26196;52.302;10.572;2023-03-15T07:55:33;100476.47;;;9.77;49.46
40490;BME280;26196;52.302;10.572;2023-03-15T07:59:34;100473.94;;;9.74;50.11
40490;BME280;26196;52.302;10.572;2023-03-15T08:04:11;100487.75;;;9.79;49.74
40490;BME280;26196;52.302;10.572;2023-03-15T08:08:11;100489.69;;;9.71;49.60
40490;BME280;26196;52.302;10.572;2023-03-15T08:12:12;100494.94;;;9.69;49.25
40490;BME280;26196;52.302;10.572;2023-03-15T08:16:46;100487.59;;;9.85;50.05
40490;BME280;26196;52.302;10.572;2023-03-15T08:20:47;100505.19;;;9.78;49.25
40490;BME280;26196;52.302;10.572;2023-03-15T08:24:48;100494.13;;;9.67;49.94
40490;BME280;26196;52.302;10.572;2023-03-15T08:29:23;100518.56;;;9.66;49.63
40490;BME280;26196;52.302;10.572;2023-03-15T08:33:23;100520.34;;;9.64;50.06
40490;BME280;26196;52.302;10.572;2023-03-15T08:47:21;100529.94;;;9.63;50.21
40490;BME280;26196;52.302;10.572;2023-03-15T08:51:22;100544.84;;;9.58;50.33
40490;BME280;26196;52.302;10.572;2023-03-15T08:55:59;100563.31;;;9.51;49.87
40490;BME280;26196;52.302;10.572;2023-03-15T09:00:33;100562.66;;;9.41;50.54
40490;BME280;26196;52.302;10.572;2023-03-15T09:04:33;100576.44;;;9.49;50.30
40490;BME280;26196;52.302;10.572;2023-03-15T09:08:34;100561.63;;;9.48;50.60
40490;BME280;26196;52.302;10.572;2023-03-15T09:13:11;100578.97;;;9.52;50.07
40490;BME280;26196;52.302;10.572;2023-03-15T09:17:12;100587.69;;;9.51;50.33
40490;BME280;26196;52.302;10.572;2023-03-15T09:21:12;100589.59;;;9.45;50.13
40490;BME280;26196;52.302;10.572;2023-03-15T09:25:12;100591.34;;;9.44;49.78
40490;BME280;26196;52.302;10.572;2023-03-15T09:29:13;100604.44;;;9.42;49.62
40490;BME280;26196;52.302;10.572;2023-03-15T09:33:13;100601.91;;;9.38;50.10
40490;BME280;26196;52.302;10.572;2023-03-15T09:37:14;100616.78;;;9.36;49.76
40490;BME280;26196;52.302;10.572;2023-03-15T09:41:19;100614.13;;;9.37;49.97
40490;BME280;26196;52.302;10.572;2023-03-15T09:45:27;100630.78;;;9.32;50.12
40490;BME280;26196;52.302;10.572;2023-03-15T09:54:14;100631.50;;;9.38;50.33
40490;BME280;26196;52.302;10.572;2023-03-15T09:58:23;100629.78;;;9.39;49.88
40490;BME280;26196;52.302;10.572;2023-03-15T10:02:53;100648.94;;;9.38;49.92
40490;BME280;26196;52.302;10.572;2023-03-15T10:06:56;100655.00;;;9.40;49.87
40490;BME280;26196;52.302;10.572;2023-03-15T10:20:39;100634.03;;;9.43;50.49
40490;BME280;26196;52.302;10.572;2023-03-15T10:24:58;100627.94;;;9.44;50.71
40490;BME280;26196;52.302;10.572;2023-03-15T10:29:28;100632.16;;;9.50;50.87
40490;BME280;26196;52.302;10.572;2023-03-15T10:33:36;100618.94;;;9.57;50.96
40490;BME280;26196;52.302;10.572;2023-03-15T10:37:37;100618.94;;;9.57;50.98
40490;BME280;26196;52.302;10.572;2023-03-15T10:46:23;100621.66;;;9.51;50.79
40490;BME280;26196;52.302;10.572;2023-03-15T10:50:26;100627.66;;;9.56;50.61
40490;BME280;26196;52.302;10.572;2023-03-15T10:54:27;100628.41;;;9.61;51.00
40490;BME280;26196;52.302;10.572;2023-03-15T11:07:27;100657.28;;;9.57;51.33
40490;BME280;26196;52.302;10.572;2023-03-15T11:11:27;100657.22;;;9.58;52.32
40490;BME280;26196;52.302;10.572;2023-03-15T11:15:28;100666.63;;;9.67;52.67
40490;BME280;26196;52.302;10.572;2023-03-15T11:20:09;100663.81;;;9.78;52.96
40490;BME280;26196;52.302;10.572;2023-03-15T11:24:39;100663.72;;;9.81;53.34
40490;BME280;26196;52.302;10.572;2023-03-15T11:38:39;100664.41;;;9.89;53.14
40490;BME280;26196;52.302;10.572;2023-03-15T11:43:00;100670.31;;;9.99;53.12
40490;BME280;26196;52.302;10.572;2023-03-15T11:51:04;100663.44;;;9.93;52.59
40490;BME280;26196;52.302;10.572;2023-03-15T11:55:39;100659.91;;;9.96;51.66
40490;BME280;26196;52.302;10.572;2023-03-15T11:59:43;100657.25;;;9.97;51.78
40490;BME280;26196;52.302;10.572;2023-03-15T12:08:39;100683.41;;;9.97;50.69
40490;BME280;26196;52.302;10.572;2023-03-15T12:13:06;100679.13;;;9.93;49.72
40490;BME280;26196;52.302;10.572;2023-03-15T12:22:14;100679.09;;;9.96;50.46
40490;BME280;26196;52.302;10.572;2023-03-15T12:26:25;100668.56;;;9.99;50.66
40490;BME280;26196;52.302;10.572;2023-03-15T12:38:35;100677.25;;;10.01;50.37
40490;BME280;26196;52.302;10.572;2023-03-15T12:55:20;100696.41;;;10.00;48.87
40490;BME280;26196;52.302;10.572;2023-03-15T12:59:32;100705.09;;;10.02;48.39
40490;BME280;26196;52.302;10.572;2023-03-15T13:03:35;100703.38;;;10.01;48.28
40490;BME280;26196;52.302;10.572;2023-03-15T13:08:19;100712.03;;;10.03;48.04
40490;BME280;26196;52.302;10.572;2023-03-15T13:12:50;100712.94;;;10.02;47.50
40490;BME280;26196;52.302;10.572;2023-03-15T13:17:35;100722.56;;;10.00;46.60
40490;BME280;26196;52.302;10.572;2023-03-15T13:34:55;100767.03;;;10.00;49.44
40490;BME280;26196;52.302;10.572;2023-03-15T13:39:31;100773.03;;;10.05;49.56
40490;BME280;26196;52.302;10.572;2023-03-15T13:47:43;100783.56;;;10.02;48.52
40490;BME280;26196;52.302;10.572;2023-03-15T13:51:46;100783.38;;;10.10;48.71
40490;BME280;26196;52.302;10.572;2023-03-15T13:56:26;100801.69;;;10.12;49.07
40490;BME280;26196;52.302;10.572;2023-03-15T14:00:59;100805.09;;;10.15;48.97
40490;BME280;26196;52.302;10.572;2023-03-15T14:05:41;100799.84;;;10.15;48.89
40490;BME280;26196;52.302;10.572;2023-03-15T14:10:21;100805.84;;;10.20;49.14
40490;BME280;26196;52.302;10.572;2023-03-15T14:14:57;100801.53;;;10.19;49.55
40490;BME280;26196;52.302;10.572;2023-03-15T14:19:32;100805.81;;;10.22;49.78
40490;BME280;26196;52.302;10.572;2023-03-15T14:23:42;100811.88;;;10.24;50.38
40490;BME280;26196;52.302;10.572;2023-03-15T14:27:42;100800.41;;;10.31;50.04
40490;BME280;26196;52.302;10.572;2023-03-15T14:32:24;100805.59;;;10.34;50.17
40490;BME280;26196;52.302;10.572;2023-03-15T14:36:56;100799.44;;;10.37;49.82
40490;BME280;26196;52.302;10.572;2023-03-15T14:45:27;100796.63;;;10.44;49.61
40490;BME280;26196;52.302;10.572;2023-03-15T14:50:02;100809.72;;;10.46;50.01
40490;BME280;26196;52.302;10.572;2023-03-15T14:54:41;100819.13;;;10.53;51.21
40490;BME280;26196;52.302;10.572;2023-03-15T14:59:15;100807.84;;;10.88;49.57
40490;BME280;26196;52.302;10.572;2023-03-15T15:03:54;100809.56;;;10.89;49.74
40490;BME280;26196;52.302;10.572;2023-03-15T15:12:29;100814.28;;;10.75;49.64
40490;BME280;26196;52.302;10.572;2023-03-15T15:16:29;100812.63;;;10.71;48.76
40490;BME280;26196;52.302;10.572;2023-03-15T15:25:16;100815.81;;;10.84;49.00
40490;BME280;26196;52.302;10.572;2023-03-15T15:29:45;100829.84;;;10.81;48.66
40490;BME280;26196;52.302;10.572;2023-03-15T15:33:45;100822.13;;;10.75;47.92
40490;BME280;26196;52.302;10.572;2023-03-15T15:37:47;100830.00;;;10.75;47.74
40490;BME280;26196;52.302;10.572;2023-03-15T15:41:49;100840.50;;;10.73;47.05
40490;BME280;26196;52.302;10.572;2023-03-15T15:45:49;100836.06;;;10.77;47.06
40490;BME280;26196;52.302;10.572;2023-03-15T15:49:49;100842.19;;;10.76;46.94
40490;BME280;26196;52.302;10.572;2023-03-15T15:53:50;100851.78;;;10.77;47.04
40490;BME280;26196;52.302;10.572;2023-03-15T15:58:26;100844.69;;;10.81;46.88
40490;BME280;26196;52.302;10.572;2023-03-15T16:03:01;100856.94;;;10.80;45.80
40490;BME280;26196;52.302;10.572;2023-03-15T16:07:01;100867.34;;;10.82;46.26
40490;BME280;26196;52.302;10.572;2023-03-15T16:15:42;100872.78;;;10.74;45.92
40490;BME280;26196;52.302;10.572;2023-03-15T16:19:42;100878.75;;;10.81;45.87
40490;BME280;26196;52.302;10.572;2023-03-15T16:23:44;100888.78;;;11.01;47.97
40490;BME280;26196;52.302;10.572;2023-03-15T16:32:56;100894.84;;;11.03;47.22
40490;BME280;26196;52.302;10.572;2023-03-15T16:37:31;100902.72;;;11.01;46.71
40490;BME280;26196;52.302;10.572;2023-03-15T16:42:08;100916.78;;;10.97;46.34
40490;BME280;26196;52.302;10.572;2023-03-15T16:51:20;100927.00;;;11.09;46.72
40490;BME280;26196;52.302;10.572;2023-03-15T16:59:57;100938.47;;;11.04;46.32
40490;BME280;26196;52.302;10.572;2023-03-15T17:04:32;100944.56;;;11.04;46.37
40490;BME280;26196;52.302;10.572;2023-03-15T17:09:09;100959.34;;;11.07;46.73
40490;BME280;26196;52.302;10.572;2023-03-15T17:13:42;100960.19;;;11.09;46.95
40490;BME280;26196;52.302;10.572;2023-03-15T17:18:19;100965.44;;;11.07;46.98
40490;BME280;26196;52.302;10.572;2023-03-15T17:27:35;100971.50;;;11.11;47.10
40490;BME280;26196;52.302;10.572;2023-03-15T17:41:32;100981.84;;;11.17;48.06
40490;BME280;26196;52.302;10.572;2023-03-15T17:50:04;100991.31;;;11.23;48.01
40490;BME280;26196;52.302;10.572;2023-03-15T17:54:15;100999.94;;;11.28;47.72
40490;BME280;26196;52.302;10.572;2023-03-15T17:58:42;101004.31;;;11.27;47.96
40490;BME280;26196;52.302;10.572;2023-03-15T18:03:20;100997.31;;;11.28;47.80
40490;BME280;26196;52.302;10.572;2023-03-15T18:07:55;101003.41;;;11.28;48.16
40490;BME280;26196;52.302;10.572;2023-03-15T18:12:32;101007.81;;;11.28;48.16
40490;BME280;26196;52.302;10.572;2023-03-15T18:30:58;101017.28;;;11.33;47.69
40490;BME280;26196;52.302;10.572;2023-03-15T18:34:59;101012.09;;;11.30;47.97
40490;BME280;26196;52.302;10.572;2023-03-15T18:39:33;101017.34;;;11.30;47.71
40490;BME280;26196;52.302;10.572;2023-03-15T18:44:10;101015.56;;;11.32;47.70
40490;BME280;26196;52.302;10.572;2023-03-15T18:53:24;101026.00;;;11.34;47.09
40490;BME280;26196;52.302;10.572;2023-03-15T18:57:59;101025.13;;;11.33;47.16
40490;BME280;26196;52.302;10.572;2023-03-15T19:02:00;101030.44;;;11.30;47.04
40490;BME280;26196;52.302;10.572;2023-03-15T19:06:34;101037.41;;;11.31;46.70
40490;BME280;26196;52.302;10.572;2023-03-15T19:15:46;101030.59;;;11.24;46.47
40490;BME280;26196;52.302;10.572;2023-03-15T19:19:46;101030.53;;;11.26;46.57
40490;BME280;26196;52.302;10.572;2023-03-15T19:24:21;101042.72;;;11.28;46.50
40490;BME280;26196;52.302;10.572;2023-03-15T19:28:21;101047.09;;;11.29;46.45
40490;BME280;26196;52.302;10.572;2023-03-15T19:32:22;101050.63;;;11.27;46.78
40490;BME280;26196;52.302;10.572;2023-03-15T19:41:19;101060.38;;;11.20;46.16
40490;BME280;26196;52.302;10.572;2023-03-15T19:45:54;101065.59;;;11.20;46.52
40490;BME280;26196;52.302;10.572;2023-03-15T19:54:32;101069.13;;;11.19;46.47
40490;BME280;26196;52.302;10.572;2023-03-15T19:58:33;101079.63;;;11.19;46.55
40490;BME280;26196;52.302;10.572;2023-03-15T20:03:10;101084.84;;;11.19;46.29
40490;BME280;26196;52.302;10.572;2023-03-15T20:07:46;101079.69;;;11.16;46.48
40490;BME280;26196;52.302;10.572;2023-03-15T20:12:21;101082.25;;;11.19;46.38
40490;BME280;26196;52.302;10.572;2023-03-15T20:16:59;101083.94;;;11.20;46.12
40490;BME280;26196;52.302;10.572;2023-03-15T20:21:36;101086.72;;;11.14;46.02
40490;BME280;26196;52.302;10.572;2023-03-15T20:30:49;101087.63;;;11.11;46.14
40490;BME280;26196;52.302;10.572;2023-03-15T20:34:50;101094.56;;;11.14;46.25
40490;BME280;26196;52.302;10.572;2023-03-15T20:39:26;101098.72;;;11.24;45.96
40490;BME280;26196;52.302;10.572;2023-03-15T20:44:01;101102.38;;;11.17;45.68
40490;BME280;26196;52.302;10.572;2023-03-15T20:48:38;101105.91;;;11.14;45.79
40490;BME280;26196;52.302;10.572;2023-03-15T20:57:50;101115.63;;;11.09;45.45
40490;BME280;26196;52.302;10.572;2023-03-15T21:02:27;101120.88;;;11.08;45.43
40490;BME280;26196;52.302;10.572;2023-03-15T21:11:05;101116.72;;;10.98;45.08
40490;BME280;26196;52.302;10.572;2023-03-15T21:15:06;101123.69;;;10.99;44.82
40490;BME280;26196;52.302;10.572;2023-03-15T21:19:06;101129.00;;;10.94;44.94
40490;BME280;26196;52.302;10.572;2023-03-15T21:23:07;101114.19;;;10.93;44.55
40490;BME280;26196;52.302;10.572;2023-03-15T21:27:42;101117.69;;;10.92;44.58
40490;BME280;26196;52.302;10.572;2023-03-15T21:31:42;101124.81;;;10.85;44.59
40490;BME280;26196;52.302;10.572;2023-03-15T21:35:43;101112.63;;;10.83;44.71
40490;BME280;26196;52.302;10.572;2023-03-15T21:40:18;101125.72;;;10.83;44.63
40490;BME280;26196;52.302;10.572;2023-03-15T21:44:18;101118.78;;;10.80;44.61
40490;BME280;26196;52.302;10.572;2023-03-15T21:48:18;101121.47;;;10.76;44.39
40490;BME280;26196;52.302;10.572;2023-03-15T21:52:20;101130.19;;;10.78;44.60
40490;BME280;26196;52.302;10.572;2023-03-15T21:56:54;101118.94;;;10.72;44.25
40490;BME280;26196;52.302;10.572;2023-03-15T22:00:56;101121.53;;;10.74;44.13
40490;BME280;26196;52.302;10.572;2023-03-15T22:04:57;101118.09;;;10.70;44.41
40490;BME280;26196;52.302;10.572;2023-03-15T22:08:57;101128.63;;;10.66;44.03
40490;BME280;26196;52.302;10.572;2023-03-15T22:13:35;101133.06;;;10.64;44.07
40490;BME280;26196;52.302;10.572;2023-03-15T22:17:36;101129.53;;;10.65;44.25
40490;BME280;26196;52.302;10.572;2023-03-15T22:21:36;101136.53;;;10.63;44.15
40490;BME280;26196;52.302;10.572;2023-03-15T22:26:13;101129.66;;;10.59;43.91
40490;BME280;26196;52.302;10.572;2023-03-15T22:30:14;101122.72;;;10.56;43.65
40490;BME280;26196;52.302;10.572;2023-03-15T22:34:14;101129.69;;;10.56;43.71
40490;BME280;26196;52.302;10.572;2023-03-15T22:38:52;101128.88;;;10.54;43.48
40490;BME280;26196;52.302;10.572;2023-03-15T22:42:52;101138.50;;;10.51;43.44
40490;BME280;26196;52.302;10.572;2023-03-15T22:47:27;101135.88;;;10.50;43.41
40490;BME280;26196;52.302;10.572;2023-03-15T22:51:27;101128.94;;;10.47;43.62
40490;BME280;26196;52.302;10.572;2023-03-15T22:55:28;101134.25;;;10.44;43.13
40490;BME280;26196;52.302;10.572;2023-03-15T23:00:04;101136.91;;;10.41;43.26
40490;BME280;26196;52.302;10.572;2023-03-15T23:04:06;101136.13;;;10.38;43.40
40490;BME280;26196;52.302;10.572;2023-03-15T23:12:44;101131.78;;;10.35;43.21
40490;BME280;26196;52.302;10.572;2023-03-15T23:17:18;101139.66;;;10.34;43.33
40490;BME280;26196;52.302;10.572;2023-03-15T23:21:19;101137.94;;;10.31;43.33
40490;BME280;26196;52.302;10.572;2023-03-15T23:25:21;101143.25;;;10.28;42.76
40490;BME280;26196;52.302;10.572;2023-03-15T23:29:22;101137.97;;;10.26;42.87
40490;BME280;26196;52.302;10.572;2023-03-15T23:33:22;101147.59;;;10.26;42.62
40490;BME280;26196;52.302;10.572;2023-03-15T23:37:24;101145.91;;;10.22;42.31
40490;BME280;26196;52.302;10.572;2023-03-15T23:46:03;101158.16;;;10.20;42.64
40490;BME280;26196;52.302;10.572;2023-03-15T23:50:04;101156.47;;;10.16;42.83
40490;BME280;26196;52.302;10.572;2023-03-15T23:54:39;101161.69;;;10.16;42.90
40490;BME280;26196;52.302;10.572;2023-03-15T23:58:40;101162.59;;;10.13;42.34
